createdAt,value
2019-05-12T00:02:04.108Z,56.25
2019-05-12T00:04:35.455Z,57.93
2019-05-12T00:07:08.698Z,62.30
2019-05-12T00:09:39.597Z,69.40
2019-05-12T00:12:10.910Z,69.85
2019-05-12T00:14:42.435Z,58.68
2019-05-12T00:17:15.010Z,64.77
2019-05-12T00:19:47.922Z,67.58
2019-05-12T00:22:20.883Z,65.32
2019-05-12T00:24:52.173Z,64.75
2019-05-12T00:27:24.110Z,59.27
2019-05-12T00:29:57.731Z,59.70
2019-05-12T00:32:29.034Z,55.92
2019-05-12T00:35:00.401Z,56.63
2019-05-12T00:37:31.610Z,52.45
2019-05-12T00:40:03.001Z,56.13
2019-05-12T00:42:34.315Z,57.98
2019-05-12T00:45:08.093Z,57.75
2019-05-12T00:47:39.685Z,49.67
2019-05-12T00:50:11.102Z,45.30
2019-05-12T00:52:42.369Z,45.35
2019-05-12T00:55:13.624Z,46.30
2019-05-12T00:57:44.890Z,43.63
2019-05-12T01:00:17.873Z,42.05
2019-05-12T01:02:49.389Z,43.80
2019-05-12T01:05:20.631Z,44.40
2019-05-12T01:07:51.992Z,55.25
2019-05-12T01:10:23.205Z,66.72
2019-05-12T01:12:57.861Z,73.92
2019-05-12T01:15:30.288Z,57.35
2019-05-12T01:18:01.498Z,57.43
2019-05-12T01:20:32.789Z,56.40
2019-05-12T01:23:04.038Z,61.50
2019-05-12T01:25:35.325Z,67.58
2019-05-12T01:28:08.099Z,69.95
2019-05-12T01:30:42.731Z,89.17
2019-05-12T01:33:15.425Z,68.72
2019-05-12T01:35:48.473Z,67.17
2019-05-12T01:38:20.978Z,63.73
2019-05-12T01:40:53.347Z,63.83
2019-05-12T01:43:24.835Z,61.90
2019-05-12T01:45:58.855Z,64.53
2019-05-12T01:48:29.671Z,67.50
2019-05-12T01:51:01.019Z,73.42
2019-05-12T01:53:34.332Z,70.55
2019-05-12T01:56:22.616Z,67.27
2019-05-12T01:59:01.735Z,68.17
2019-05-12T02:01:33.130Z,69.50
2019-05-12T02:04:04.549Z,70.70
2019-05-12T02:06:38.392Z,72.12
2019-05-12T02:09:10.483Z,69.47
2019-05-12T02:11:42.160Z,58.33
2019-05-12T02:14:13.507Z,66.92
2019-05-12T02:16:44.906Z,67.62
2019-05-12T02:19:17.825Z,71.22
2019-05-12T02:21:49.361Z,74.77
2019-05-12T02:24:26.639Z,75.87
2019-05-12T02:26:53.658Z,75.40
2019-05-12T02:29:25.021Z,73.40
2019-05-12T02:31:58.935Z,75.12
2019-05-12T02:34:29.157Z,73.95
2019-05-12T02:37:00.763Z,70.67
2019-05-12T02:39:34.995Z,74.17
2019-05-12T02:42:05.293Z,70.42
2019-05-12T02:44:37.572Z,75.80
2019-05-12T02:47:09.947Z,75.80
2019-05-12T02:49:41.253Z,73.05
2019-05-12T02:52:15.396Z,70.90
2019-05-12T02:54:55.236Z,71.95
2019-05-12T02:57:18.515Z,75.87
2019-05-12T02:59:49.929Z,68.62
2019-05-12T03:02:24.196Z,66.28
2019-05-12T03:04:55.012Z,71.45
2019-05-12T03:07:27.677Z,62.78
2019-05-12T03:09:59.134Z,63.98
2019-05-12T03:12:34.243Z,64.35
2019-05-12T03:15:05.656Z,64.32
2019-05-12T03:17:37.908Z,64.07
2019-05-12T03:20:11.004Z,62.10
2019-05-12T03:22:44.766Z,62.03
2019-05-12T03:25:24.307Z,60.80
2019-05-12T03:27:48.601Z,57.08
2019-05-12T03:30:20.105Z,57.38
2019-05-12T03:32:57.182Z,57.05
2019-05-12T03:35:32.549Z,53.05
2019-05-12T03:37:57.609Z,53.17
2019-05-12T03:40:29.266Z,50.00
2019-05-12T03:43:05.030Z,48.13
2019-05-12T03:45:36.136Z,46.60
2019-05-12T03:48:07.789Z,45.10
2019-05-12T03:50:39.082Z,43.10
2019-05-12T03:53:11.166Z,39.58
2019-05-12T03:55:47.057Z,36.65
2019-05-12T03:58:17.582Z,36.10
2019-05-12T04:00:48.910Z,35.50
2019-05-12T04:03:20.204Z,32.25
2019-05-12T04:05:51.530Z,30.08
2019-05-12T04:08:24.854Z,28.75
2019-05-12T04:10:56.030Z,26.77
2019-05-12T04:13:27.389Z,26.17
2019-05-12T04:15:59.757Z,23.05
2019-05-12T04:18:31.268Z,24.87
2019-05-12T04:21:05.585Z,23.92
2019-05-12T04:23:36.001Z,23.60
2019-05-12T04:26:12.158Z,23.38
2019-05-12T04:28:40.243Z,21.50
2019-05-12T04:31:15.245Z,22.83
2019-05-12T04:33:45.600Z,21.60
2019-05-12T04:36:16.857Z,21.23
2019-05-12T04:38:48.121Z,21.87
2019-05-12T04:41:20.279Z,20.57
2019-05-12T04:43:54.915Z,19.67
2019-05-12T04:46:26.918Z,21.20
2019-05-12T04:48:58.325Z,19.92
2019-05-12T04:51:29.394Z,19.80
2019-05-12T04:54:00.791Z,20.88
2019-05-12T04:56:35.414Z,18.98
2019-05-12T04:59:05.296Z,19.42
2019-05-12T05:01:37.032Z,20.77
2019-05-12T05:04:08.311Z,19.40
2019-05-12T05:06:39.544Z,20.65
2019-05-12T05:09:10.805Z,20.27
2019-05-12T05:11:44.789Z,19.62
2019-05-12T05:14:14.899Z,18.60
2019-05-12T05:16:47.566Z,19.10
2019-05-12T05:19:18.918Z,20.05
2019-05-12T05:21:50.165Z,18.92
2019-05-12T05:24:23.429Z,20.80
2019-05-12T05:26:54.336Z,18.07
2019-05-12T05:29:25.561Z,17.27
2019-05-12T05:31:57.725Z,17.60
2019-05-12T05:34:34.134Z,18.25
2019-05-12T05:37:05.869Z,18.45
2019-05-12T05:39:47.601Z,20.20
2019-05-12T05:42:10.163Z,20.45
2019-05-12T05:44:43.368Z,20.60
2019-05-12T05:47:14.234Z,19.62
2019-05-12T05:49:45.482Z,20.55
2019-05-12T05:52:16.783Z,19.30
2019-05-12T05:54:48.070Z,20.95
2019-05-12T05:57:19.979Z,19.70
2019-05-12T05:59:53.778Z,20.12
2019-05-12T06:02:31.864Z,20.10
2019-05-12T06:04:58.265Z,21.48
2019-05-12T06:07:34.967Z,21.77
2019-05-12T06:10:04.098Z,21.52
2019-05-12T06:12:35.195Z,22.58
2019-05-12T06:15:09.018Z,21.23
2019-05-12T06:17:40.343Z,21.42
2019-05-12T06:20:13.463Z,20.48
2019-05-12T06:22:48.687Z,20.60
2019-05-12T06:25:18.103Z,21.05
2019-05-12T06:27:51.183Z,17.95
2019-05-12T06:30:24.151Z,19.05
2019-05-12T06:32:55.111Z,19.85
2019-05-12T06:35:30.917Z,17.80
2019-05-12T06:38:01.748Z,17.20
2019-05-12T06:40:40.438Z,16.97
2019-05-12T06:43:05.642Z,17.55
2019-05-12T06:45:42.653Z,16.20
2019-05-12T06:48:14.031Z,15.45
2019-05-12T06:50:49.492Z,17.20
2019-05-12T06:53:33.180Z,16.02
2019-05-12T06:56:04.466Z,15.13
2019-05-12T06:58:45.620Z,13.90
2019-05-12T07:01:19.489Z,16.73
2019-05-12T07:04:00.521Z,18.52
2019-05-12T07:06:34.813Z,15.60
2019-05-12T07:09:26.669Z,15.38
2019-05-12T07:12:02.703Z,13.30
2019-05-12T07:14:27.918Z,11.97
2019-05-12T07:17:02.879Z,11.63
2019-05-12T07:19:34.462Z,10.40
2019-05-12T07:22:18.864Z,11.40
2019-05-12T07:24:50.200Z,9.85
2019-05-12T07:27:36.011Z,11.15
2019-05-12T07:30:09.133Z,9.48
2019-05-12T07:32:43.371Z,9.78
2019-05-12T07:35:17.874Z,9.80
2019-05-12T07:37:53.443Z,9.35
2019-05-12T07:40:30.036Z,8.33
2019-05-12T07:43:10.089Z,11.12
2019-05-12T07:48:13.946Z,8.98
2019-05-12T07:50:45.208Z,9.80
2019-05-12T07:53:26.693Z,8.88
2019-05-12T07:55:59.441Z,8.30
2019-05-12T07:58:33.318Z,8.65
2019-05-12T08:01:08.022Z,8.33
2019-05-12T08:03:40.893Z,7.62
2019-05-12T08:06:14.181Z,8.15
2019-05-12T08:08:50.928Z,8.13
2019-05-12T08:11:28.877Z,8.23
2019-05-12T08:14:13.793Z,8.40
2019-05-12T08:16:47.187Z,7.42
2019-05-12T08:19:35.777Z,7.97
2019-05-12T08:22:18.972Z,7.95
2019-05-12T08:24:53.675Z,7.85
2019-05-12T08:27:34.089Z,7.40
2019-05-12T08:30:11.056Z,7.40
2019-05-12T08:32:46.984Z,8.00
2019-05-12T08:38:00.441Z,7.80
2019-05-12T08:40:46.461Z,10.28
2019-05-12T08:43:16.241Z,8.10
2019-05-12T08:45:53.607Z,7.42
2019-05-12T08:48:34.311Z,7.08
2019-05-12T08:51:20.115Z,7.08
2019-05-12T08:54:02.461Z,7.70
2019-05-12T08:56:27.477Z,7.65
2019-05-12T08:59:00.994Z,20.15
2019-05-12T09:01:37.158Z,8.33
2019-05-12T09:04:18.601Z,8.55
2019-05-12T09:07:04.698Z,9.45
2019-05-12T09:09:40.072Z,10.15
2019-05-12T09:12:16.693Z,10.55
2019-05-12T09:15:13.602Z,9.80
2019-05-12T09:17:52.478Z,10.85
2019-05-12T09:20:24.526Z,9.70
2019-05-12T09:23:02.013Z,8.73
2019-05-12T09:25:44.336Z,10.18
2019-05-12T09:28:25.439Z,10.38
2019-05-12T09:30:59.871Z,10.63
2019-05-12T09:33:34.590Z,9.35
2019-05-12T09:36:19.843Z,8.75
2019-05-12T09:38:46.683Z,8.43
2019-05-12T09:41:18.904Z,8.40
2019-05-12T09:43:50.872Z,9.00
2019-05-12T09:46:23.290Z,7.05
2019-05-12T09:48:55.177Z,7.12
2019-05-12T09:51:35.201Z,7.90
2019-05-12T09:54:00.429Z,7.22
2019-05-12T09:56:34.063Z,6.83
2019-05-12T09:59:17.483Z,6.95
2019-05-12T10:01:43.103Z,7.33
2019-05-12T10:04:16.315Z,7.12
2019-05-12T10:06:48.106Z,8.15
2019-05-12T10:09:20.000Z,15.03
2019-05-12T10:12:00.419Z,7.37
2019-05-12T10:14:24.614Z,6.60
2019-05-12T10:16:56.271Z,7.50
2019-05-12T10:19:27.807Z,7.65
2019-05-12T10:21:59.643Z,7.25
2019-05-12T10:24:32.750Z,7.55
2019-05-12T10:27:09.485Z,7.25
2019-05-12T10:29:40.751Z,6.72
2019-05-12T10:32:13.643Z,5.45
2019-05-12T10:34:47.428Z,7.35
2019-05-12T10:37:19.233Z,9.60
2019-05-12T10:39:55.691Z,7.92
2019-05-12T10:42:27.069Z,6.80
2019-05-12T10:44:59.213Z,6.97
2019-05-12T10:47:30.528Z,6.78
2019-05-12T10:50:09.551Z,6.12
2019-05-12T10:52:40.962Z,5.72
2019-05-12T10:55:13.431Z,6.45
2019-05-12T10:57:47.250Z,6.15
2019-05-12T11:00:25.079Z,5.95
2019-05-12T11:02:53.536Z,6.60
2019-05-12T11:05:26.607Z,5.58
2019-05-12T11:08:00.200Z,4.75
2019-05-12T11:10:32.214Z,5.00
2019-05-12T11:13:08.209Z,5.20
2019-05-12T11:15:39.423Z,4.83
2019-05-12T11:18:11.176Z,5.05
2019-05-12T11:20:48.459Z,5.50
2019-05-12T11:23:20.378Z,6.03
2019-05-12T11:25:55.400Z,5.85
2019-05-12T11:28:33.472Z,5.85
2019-05-12T11:31:07.685Z,4.53
2019-05-12T11:33:39.695Z,6.03
2019-05-12T11:36:13.614Z,5.95
2019-05-12T11:38:48.560Z,5.42
2019-05-12T11:41:20.519Z,5.72
2019-05-12T11:43:55.369Z,5.08
2019-05-12T11:46:27.504Z,5.62
2019-05-12T11:49:04.584Z,5.58
2019-05-12T11:51:38.562Z,5.35
2019-05-12T11:54:10.904Z,5.72
2019-05-12T11:56:46.584Z,6.37
2019-05-12T11:59:15.967Z,5.55
2019-05-12T12:01:51.548Z,6.50
2019-05-12T12:04:25.514Z,5.83
2019-05-12T12:06:57.620Z,6.90
2019-05-12T12:09:28.920Z,6.60
2019-05-12T12:12:05.560Z,6.28
2019-05-12T12:14:34.496Z,7.10
2019-05-12T12:17:05.985Z,8.85
2019-05-12T12:19:43.978Z,6.58
2019-05-12T12:22:14.551Z,6.10
2019-05-12T12:24:45.397Z,7.97
2019-05-12T12:27:18.400Z,6.53
2019-05-12T12:29:49.677Z,6.20
2019-05-12T12:32:23.162Z,5.65
2019-05-12T12:34:54.460Z,6.42
2019-05-12T12:37:25.827Z,6.72
2019-05-12T12:39:57.042Z,5.95
2019-05-12T12:42:30.451Z,6.70
2019-05-12T12:45:04.265Z,6.33
2019-05-12T12:47:43.609Z,6.65
2019-05-12T12:50:10.653Z,6.28
2019-05-12T12:52:46.875Z,6.47
2019-05-12T12:55:16.459Z,5.90
2019-05-12T12:57:50.689Z,5.65
2019-05-12T13:00:29.730Z,5.78
2019-05-12T13:02:53.612Z,7.45
2019-05-12T13:05:25.222Z,5.92
2019-05-12T13:07:58.168Z,6.50
2019-05-12T13:10:33.577Z,6.33
2019-05-12T13:13:04.596Z,6.20
2019-05-12T13:15:36.051Z,5.75
2019-05-12T13:18:09.048Z,6.97
2019-05-12T13:20:40.370Z,7.37
2019-05-12T13:23:14.367Z,7.70
2019-05-12T13:25:50.536Z,8.38
2019-05-12T13:28:22.703Z,8.50
2019-05-12T13:31:07.642Z,8.08
2019-05-12T13:33:28.271Z,7.40
2019-05-12T13:35:59.613Z,8.13
2019-05-12T13:38:38.282Z,7.92
2019-05-12T13:41:04.387Z,8.65
2019-05-12T13:43:41.232Z,9.08
2019-05-12T13:46:13.159Z,9.63
2019-05-12T13:48:49.883Z,9.98
2019-05-12T13:51:20.503Z,11.97
2019-05-12T13:53:52.198Z,9.70
2019-05-12T13:56:25.788Z,9.40
2019-05-12T13:58:57.272Z,7.10
2019-05-12T14:01:31.924Z,6.22
2019-05-12T14:04:04.041Z,4.80
2019-05-12T14:06:37.732Z,4.37
2019-05-12T14:09:09.955Z,4.37
2019-05-12T14:11:43.759Z,4.37
2019-05-12T14:14:15.775Z,4.37
2019-05-12T14:16:57.399Z,4.28
2019-05-12T14:19:23.326Z,3.92
2019-05-12T14:21:56.713Z,4.17
2019-05-12T14:24:33.320Z,3.87
2019-05-12T14:27:04.040Z,4.25
2019-05-12T14:29:37.933Z,4.05
2019-05-12T14:32:12.259Z,4.97
2019-05-12T14:34:51.130Z,16.17
2019-05-12T14:37:23.812Z,5.25
2019-05-12T14:39:56.551Z,5.62
2019-05-12T14:42:34.850Z,5.75
2019-05-12T14:45:04.512Z,6.17
2019-05-12T14:47:38.906Z,5.83
2019-05-12T14:50:09.583Z,7.10
2019-05-12T14:52:41.063Z,6.92
2019-05-12T14:55:17.453Z,7.72
2019-05-12T14:57:56.520Z,9.18
2019-05-12T15:00:28.522Z,7.42
2019-05-12T15:03:05.460Z,8.78
2019-05-12T15:05:35.046Z,8.13
2019-05-12T15:08:08.828Z,10.35
2019-05-12T15:10:40.661Z,10.13
2019-05-12T15:13:13.946Z,9.45
2019-05-12T15:15:50.060Z,9.90
2019-05-12T15:18:22.581Z,9.15
2019-05-12T15:20:56.746Z,9.40
2019-05-12T15:23:35.074Z,9.58
2019-05-12T15:26:09.515Z,9.85
2019-05-12T15:28:38.353Z,9.50
2019-05-12T15:31:11.286Z,10.03
2019-05-12T15:33:44.025Z,8.68
2019-05-12T15:36:17.867Z,9.28
2019-05-12T15:38:54.482Z,10.28
2019-05-12T15:41:23.800Z,10.08
2019-05-12T15:43:55.890Z,11.15
2019-05-12T15:46:33.008Z,9.00
2019-05-12T15:49:08.619Z,11.08
2019-05-12T15:51:50.967Z,11.33
2019-05-12T15:54:15.587Z,78.50
2019-05-12T15:56:49.434Z,12.05
2019-05-12T15:59:20.787Z,11.45
2019-05-12T16:01:57.289Z,9.95
2019-05-12T16:04:26.941Z,10.40
2019-05-12T16:06:58.370Z,11.12
2019-05-12T16:09:30.922Z,11.48
2019-05-12T16:12:09.976Z,12.00
2019-05-12T16:14:41.319Z,12.40
2019-05-12T16:17:16.790Z,19.37
2019-05-12T16:19:47.858Z,14.55
2019-05-12T16:22:19.886Z,12.43
2019-05-12T16:24:53.196Z,12.00
2019-05-12T16:27:33.106Z,11.93
2019-05-12T16:30:04.545Z,12.88
2019-05-12T16:32:42.631Z,13.58
2019-05-12T16:35:09.556Z,13.00
2019-05-12T16:37:41.004Z,15.23
2019-05-12T16:40:13.672Z,16.20
2019-05-12T16:42:51.110Z,14.45
2019-05-12T16:45:20.179Z,14.43
2019-05-12T16:47:53.616Z,14.53
2019-05-12T16:50:28.087Z,15.48
2019-05-12T16:52:59.946Z,18.20
2019-05-12T16:55:44.116Z,17.40
2019-05-12T16:58:04.381Z,17.05
2019-05-12T17:00:39.575Z,17.52
2019-05-12T17:03:11.459Z,18.50
2019-05-12T17:05:44.885Z,19.92
2019-05-12T17:08:19.525Z,21.77
2019-05-12T17:11:00.982Z,23.22
2019-05-12T17:13:25.409Z,21.10
2019-05-12T17:16:00.135Z,23.45
2019-05-12T17:18:34.075Z,22.25
2019-05-12T17:21:06.108Z,24.75
2019-05-12T17:23:37.934Z,24.65
2019-05-12T17:26:09.239Z,25.85
2019-05-12T17:28:40.646Z,28.80
2019-05-12T17:31:14.980Z,27.40
2019-05-12T17:33:46.571Z,29.37
2019-05-12T17:36:24.056Z,30.05
2019-05-12T17:38:57.885Z,30.65
2019-05-12T17:41:31.617Z,31.55
2019-05-12T17:44:06.647Z,32.10
2019-05-12T17:46:39.740Z,33.60
2019-05-12T17:49:17.690Z,32.80
2019-05-12T17:51:44.751Z,31.68
2019-05-12T17:54:21.685Z,30.52
2019-05-12T17:56:51.177Z,30.30
2019-05-12T17:59:29.205Z,32.42
2019-05-12T18:01:58.821Z,25.97
2019-05-12T18:04:30.706Z,33.48
2019-05-12T18:07:12.549Z,29.25
2019-05-12T18:09:36.525Z,30.90
2019-05-12T18:12:08.007Z,31.07
2019-05-12T18:14:49.982Z,31.57
2019-05-12T18:17:14.406Z,35.40
2019-05-12T18:19:50.244Z,34.98
2019-05-12T18:22:18.753Z,35.75
2019-05-12T18:24:50.941Z,30.55
2019-05-12T18:27:23.151Z,33.70
2019-05-12T18:29:54.621Z,39.45
2019-05-12T18:32:26.295Z,40.92
2019-05-12T18:34:57.813Z,37.28
2019-05-12T18:37:29.199Z,36.73
2019-05-12T18:40:04.102Z,36.25
2019-05-12T18:42:35.967Z,36.20
2019-05-12T18:45:15.105Z,37.50
2019-05-12T18:47:43.748Z,42.15
2019-05-12T18:50:14.744Z,41.10
2019-05-12T18:52:46.463Z,42.03
2019-05-12T18:55:19.659Z,42.17
2019-05-12T18:57:54.542Z,40.55
2019-05-12T19:00:26.623Z,44.08
2019-05-12T19:02:59.662Z,40.88
2019-05-12T19:05:32.713Z,45.48
2019-05-12T19:08:04.262Z,71.53
2019-05-12T19:10:38.587Z,44.95
2019-05-12T19:13:08.912Z,37.85
2019-05-12T19:15:40.369Z,36.73
2019-05-12T19:18:15.559Z,35.45
2019-05-12T19:20:47.863Z,38.80
2019-05-12T19:23:19.843Z,40.05
2019-05-12T19:25:53.998Z,38.65
2019-05-12T19:28:25.772Z,41.18
2019-05-12T19:31:06.074Z,44.95
2019-05-12T19:33:43.863Z,44.10
2019-05-12T19:36:10.327Z,42.85
2019-05-12T19:38:43.838Z,42.35
2019-05-12T19:41:16.308Z,43.58
2019-05-12T19:43:49.598Z,45.05
2019-05-12T19:46:21.153Z,43.58
2019-05-12T19:48:53.994Z,42.98
2019-05-12T19:51:28.335Z,42.35
2019-05-12T19:53:59.432Z,42.45
2019-05-12T19:56:35.788Z,44.35
2019-05-12T19:59:04.983Z,43.38
2019-05-12T20:01:37.346Z,43.25
2019-05-12T20:04:08.732Z,43.65
2019-05-12T20:06:40.332Z,42.35
2019-05-12T20:09:14.294Z,39.90
2019-05-12T20:11:45.776Z,37.05
2019-05-12T20:14:21.357Z,38.67
2019-05-12T20:16:50.263Z,48.83
2019-05-12T20:19:25.339Z,46.28
2019-05-12T20:21:54.403Z,43.95
2019-05-12T20:24:25.667Z,43.60
2019-05-12T20:26:58.512Z,38.98
2019-05-12T20:29:33.243Z,39.05
2019-05-12T20:32:04.674Z,41.77
2019-05-12T20:34:48.100Z,43.17
2019-05-12T20:37:15.234Z,43.33
2019-05-12T20:39:44.416Z,44.03
2019-05-12T20:42:15.129Z,47.17
2019-05-12T20:44:46.437Z,45.78
2019-05-12T20:47:17.952Z,44.98
2019-05-12T20:49:51.025Z,42.65
2019-05-12T20:52:23.778Z,43.42
2019-05-12T20:54:59.615Z,38.88
2019-05-12T20:57:29.635Z,38.58
2019-05-12T21:00:04.837Z,39.45
2019-05-12T21:02:35.113Z,40.80
2019-05-12T21:05:14.824Z,39.75
2019-05-12T21:07:40.671Z,38.40
2019-05-12T21:10:14.420Z,36.75
2019-05-12T21:12:49.940Z,38.95
2019-05-12T21:15:20.668Z,38.85
2019-05-12T21:17:58.536Z,38.28
2019-05-12T21:20:24.367Z,38.35
2019-05-12T21:22:55.943Z,39.35
2019-05-12T21:25:27.116Z,36.93
2019-05-12T21:28:07.501Z,36.73
2019-05-12T21:30:33.862Z,36.95
2019-05-12T21:33:05.406Z,39.92
2019-05-12T21:35:40.685Z,34.60
2019-05-12T21:38:13.313Z,36.38
2019-05-12T21:40:44.175Z,35.38
2019-05-12T21:43:17.289Z,35.48
2019-05-12T21:45:48.622Z,34.35
2019-05-12T21:48:23.583Z,42.53
2019-05-12T21:50:55.406Z,34.25
2019-05-12T21:53:26.166Z,35.90
2019-05-12T21:56:04.017Z,35.75
2019-05-12T21:58:30.683Z,33.83
2019-05-12T22:01:05.101Z,35.70
2019-05-12T22:03:35.066Z,35.85
2019-05-12T22:06:19.020Z,35.92
2019-05-12T22:08:39.752Z,36.45
2019-05-12T22:11:11.677Z,37.90
2019-05-12T22:13:54.911Z,37.98
2019-05-12T22:16:17.640Z,39.05
2019-05-12T22:18:56.060Z,40.03
2019-05-12T22:21:23.873Z,40.85
2019-05-12T22:23:56.339Z,40.30
2019-05-12T22:26:30.740Z,43.02
2019-05-12T22:29:04.182Z,43.05
2019-05-12T22:31:38.647Z,45.85
2019-05-12T22:34:07.888Z,43.68
2019-05-12T22:37:03.921Z,46.13
2019-05-12T22:39:46.087Z,42.98
2019-05-12T22:42:21.513Z,44.05
2019-05-12T22:44:55.298Z,45.48
2019-05-12T22:47:24.264Z,44.45
2019-05-12T22:49:57.096Z,45.83
2019-05-12T22:52:28.655Z,43.58
2019-05-12T22:55:00.123Z,47.45
2019-05-12T22:57:38.234Z,47.00
2019-05-12T23:00:06.604Z,51.77
2019-05-12T23:02:39.740Z,51.13
2019-05-12T23:05:16.810Z,50.95
2019-05-12T23:07:44.036Z,51.45
2019-05-12T23:10:15.331Z,52.00
2019-05-12T23:12:50.216Z,52.10
2019-05-12T23:15:20.137Z,51.28
2019-05-12T23:17:53.191Z,51.85
2019-05-12T23:20:25.270Z,49.85
2019-05-12T23:22:57.628Z,51.08
2019-05-12T23:25:28.921Z,48.85
2019-05-12T23:28:05.289Z,49.90
2019-05-12T23:30:35.483Z,50.20
2019-05-12T23:33:06.604Z,48.92
2019-05-12T23:35:39.725Z,51.50
2019-05-12T23:38:16.749Z,51.70
2019-05-12T23:40:44.462Z,50.95
2019-05-12T23:43:15.793Z,50.75
2019-05-12T23:45:47.189Z,49.33
2019-05-12T23:48:18.300Z,47.98
2019-05-12T23:50:49.602Z,46.45
2019-05-12T23:53:21.038Z,45.50
2019-05-12T23:55:54.165Z,45.88
2019-05-12T23:58:27.469Z,44.50
